Time;durP1;ratioP1;P1;durP2;ratioP2;P2;SDS_P1;SDS_P2;PMS_P1;PMS_P2;Temp;Humidity;BMP_temperature;BMP_pressure;BME280_temperature;BME280_humidity;BME280_pressure;Samples;Min_cycle;Max_cycle;Signal;HPM_P1;HPM_P2
2023/09/06 00:01:04;;;;;;;7.90;4.25;;;;;;;17.10;100.00;99823.03;5159267;27;20050;-55
2023/09/06 00:03:30;;;;;;;4.97;3.88;;;;;;;17.05;100.00;99781.84;5158742;27;20061;-54
2023/09/06 00:05:58;;;;;;;5.78;3.15;;;;;;;16.99;100.00;99838.03;5159197;27;20308;-57
2023/09/06 00:08:24;;;;;;;6.10;3.08;;;;;;;16.94;100.00;99847.53;5158535;27;20153;-54
2023/09/06 00:10:50;;;;;;;8.57;4.40;;;;;;;16.75;100.00;99900.47;5158631;27;20047;-51
2023/09/06 00:13:17;;;;;;;3.63;2.78;;;;;;;16.83;100.00;99913.97;5158827;27;20093;-52
2023/09/06 00:15:43;;;;;;;13.68;3.72;;;;;;;16.70;100.00;99899.63;5158700;27;20050;-56
2023/09/06 00:18:09;;;;;;;6.80;3.47;;;;;;;16.74;100.00;99899.66;5158738;27;20047;-53
2023/09/06 00:20:36;;;;;;;11.50;4.03;;;;;;;16.67;100.00;99908.72;5158595;27;20050;-51
2023/09/06 00:23:04;;;;;;;10.98;3.78;;;;;;;16.65;100.00;99935.19;5158683;27;20047;-55
2023/09/06 00:25:31;;;;;;;9.10;3.53;;;;;;;16.50;100.00;99952.91;5158378;27;20055;-57
2023/09/06 00:27:58;;;;;;;7.32;4.15;;;;;;;16.56;100.00;99973.47;5158999;27;20336;-54
2023/09/06 00:30:24;;;;;;;6.45;3.38;;;;;;;16.42;100.00;99983.28;5158596;27;20064;-56
2023/09/06 00:32:52;;;;;;;6.47;3.25;;;;;;;16.48;100.00;99997.56;5157798;27;20046;-53
2023/09/06 00:35:19;;;;;;;9.30;3.60;;;;;;;16.43;100.00;100000.69;5158199;27;20115;-53
2023/09/06 00:37:45;;;;;;;4.93;3.17;;;;;;;16.44;100.00;100007.81;5158599;27;20149;-56
2023/09/06 00:40:18;;;;;;;11.45;4.53;;;;;;;16.41;100.00;100001.06;5158408;27;20058;-57
2023/09/06 00:42:45;;;;;;;8.57;3.70;;;;;;;16.41;100.00;100009.38;5158472;27;20057;-57
2023/09/06 00:45:11;;;;;;;12.82;4.10;;;;;;;16.36;100.00;100012.50;5158654;27;20145;-58
2023/09/06 00:47:37;;;;;;;7.75;3.50;;;;;;;16.13;100.00;100032.06;5158162;27;20057;-56
2023/09/06 00:50:04;;;;;;;6.75;4.28;;;;;;;16.13;100.00;100081.88;5158299;27;20059;-53
2023/09/06 00:52:30;;;;;;;11.57;3.70;;;;;;;16.20;100.00;100073.63;5158039;27;20046;-54
2023/09/06 00:55:01;;;;;;;9.57;4.32;;;;;;;16.20;100.00;100076.41;5157904;27;20086;-54
2023/09/06 00:57:29;;;;;;;9.48;4.13;;;;;;;16.17;100.00;100085.47;5158030;27;20385;-56
2023/09/06 00:59:58;;;;;;;10.05;4.15;;;;;;;16.18;100.00;100080.72;5158312;27;20057;-54
2023/09/06 01:02:24;;;;;;;7.80;4.97;;;;;;;16.12;100.00;100090.53;5157828;27;20142;-52
2023/09/06 01:04:51;;;;;;;5.53;3.65;;;;;;;16.16;100.00;100099.66;5158075;27;20046;-54
2023/09/06 01:07:19;;;;;;;9.10;4.05;;;;;;;16.14;100.00;100094.50;5158040;27;20142;-57
2023/09/06 01:09:45;;;;;;;11.40;4.53;;;;;;;16.15;100.00;100107.16;5157959;27;20134;-56
2023/09/06 01:12:13;;;;;;;5.75;3.67;;;;;;;16.22;100.00;100096.16;5157858;27;20400;-56
2023/09/06 01:14:40;;;;;;;7.80;5.25;;;;;;;16.12;100.00;100088.56;5157601;27;20510;-52
2023/09/06 01:17:07;;;;;;;5.38;4.40;;;;;;;15.90;100.00;100100.59;5157967;27;20439;-57
2023/09/06 01:19:35;;;;;;;10.77;3.58;;;;;;;16.03;100.00;100099.16;5157790;27;20054;-56
2023/09/06 01:22:07;;;;;;;8.68;4.55;;;;;;;16.08;100.00;100104.31;5158069;27;20046;-53
2023/09/06 01:24:34;;;;;;;7.95;4.80;;;;;;;15.98;100.00;100102.25;5157864;27;20369;-52
2023/09/06 01:27:01;;;;;;;7.45;4.20;;;;;;;16.02;100.00;100114.13;5157753;27;20050;-54
2023/09/06 01:29:29;;;;;;;11.80;4.70;;;;;;;15.99;100.00;100106.59;5157648;27;20054;-54
2023/09/06 01:31:55;;;;;;;7.60;4.22;;;;;;;16.01;100.00;100095.94;5157696;27;20046;-52
2023/09/06 01:34:21;;;;;;;6.78;4.15;;;;;;;15.93;100.00;100092.31;5157779;27;20293;-53
2023/09/06 01:36:47;;;;;;;6.45;3.90;;;;;;;15.98;100.00;100103.03;5157546;27;20062;-53
2023/09/06 01:39:14;;;;;;;4.55;3.65;;;;;;;15.94;100.00;100102.19;5157495;27;20133;-55
2023/09/06 01:41:40;;;;;;;14.13;5.03;;;;;;;15.97;100.00;100089.59;5157667;27;20047;-57
2023/09/06 01:44:07;;;;;;;17.98;5.47;;;;;;;16.02;100.00;100091.22;5157939;27;20142;-55
2023/09/06 01:46:32;;;;;;;7.38;4.13;;;;;;;16.00;100.00;100094.38;5160964;27;20055;-57
2023/09/06 01:48:59;;;;;;;8.73;3.83;;;;;;;15.99;100.00;100090.81;5161315;27;20163;-57
2023/09/06 01:51:25;;;;;;;7.65;4.65;;;;;;;16.04;100.00;100088.88;5160959;27;20157;-53
2023/09/06 01:53:51;;;;;;;6.57;3.95;;;;;;;15.85;100.00;100096.16;5161287;27;20047;-55
2023/09/06 01:56:17;;;;;;;13.70;5.03;;;;;;;15.96;100.00;100099.03;5160775;27;20408;-54
2023/09/06 01:58:44;;;;;;;7.68;4.80;;;;;;;15.85;100.00;100098.16;5161191;27;20057;-52
2023/09/06 02:01:10;;;;;;;14.38;4.75;;;;;;;15.82;100.00;100094.16;5160992;27;20118;-53
2023/09/06 02:03:36;;;;;;;6.20;3.72;;;;;;;15.91;100.00;100093.88;5160893;27;20400;-54
2023/09/06 02:06:02;;;;;;;9.13;3.97;;;;;;;15.64;100.00;100090.38;5161004;27;20061;-59
2023/09/06 02:08:28;;;;;;;11.30;4.90;;;;;;;15.79;100.00;100085.81;5160735;27;20103;-56
2023/09/06 02:10:54;;;;;;;3.88;3.47;;;;;;;15.46;100.00;100079.91;5160899;27;20051;-58
2023/09/06 02:13:20;;;;;;;10.65;4.90;;;;;;;15.71;100.00;100084.94;5160698;27;20434;-55
2023/09/06 02:15:47;;;;;;;8.73;4.30;;;;;;;15.62;100.00;100089.94;5160630;27;20050;-52
2023/09/06 02:18:15;;;;;;;8.52;4.07;;;;;;;15.64;100.00;100084.84;5160869;27;20051;-57
2023/09/06 02:20:41;;;;;;;8.85;3.83;;;;;;;15.49;100.00;100079.16;5160858;27;20047;-56
2023/09/06 02:23:07;;;;;;;9.15;4.10;;;;;;;15.57;100.00;100077.25;5160359;27;20118;-53
2023/09/06 02:25:33;;;;;;;9.20;4.70;;;;;;;15.44;100.00;100068.41;5160819;27;20047;-54
2023/09/06 02:28:03;;;;;;;7.70;4.00;;;;;;;15.51;100.00;100076.78;5160656;27;20396;-57
2023/09/06 02:30:29;;;;;;;17.20;5.85;;;;;;;15.47;100.00;100078.72;5160457;27;20058;-58
2023/09/06 02:32:56;;;;;;;7.43;4.13;;;;;;;15.37;100.00;100071.09;5160490;27;20111;-58
2023/09/06 02:35:22;;;;;;;6.88;4.38;;;;;;;15.43;100.00;100072.34;5160275;27;20054;-52
2023/09/06 02:37:48;;;;;;;6.47;4.35;;;;;;;15.39;100.00;100070.69;5160182;27;20088;-56
2023/09/06 02:40:17;;;;;;;9.98;4.40;;;;;;;15.40;100.00;100062.06;5160308;27;20046;-57
2023/09/06 02:42:44;;;;;;;9.77;3.65;;;;;;;15.25;100.00;100052.78;5160469;27;20099;-57
2023/09/06 02:45:11;;;;;;;5.63;3.78;;;;;;;15.31;100.00;100050.47;5159953;27;20085;-58
2023/09/06 02:47:38;;;;;;;4.25;3.53;;;;;;;15.11;100.00;100026.94;5160661;27;20042;-58
2023/09/06 02:50:06;;;;;;;9.13;3.83;;;;;;;15.31;100.00;100031.16;5159919;27;20055;-56
2023/09/06 02:52:35;;;;;;;8.52;4.40;;;;;;;15.30;100.00;100040.63;5160433;27;20054;-55
2023/09/06 02:55:05;;;;;;;7.28;4.40;;;;;;;15.31;100.00;100044.97;5159713;27;20420;-52
2023/09/06 02:57:31;;;;;;;11.00;5.05;;;;;;;15.28;100.00;100037.41;5159063;27;20427;-56
2023/09/06 02:59:57;;;;;;;7.63;4.40;;;;;;;15.25;100.00;100038.16;5159848;27;20054;-55
2023/09/06 03:02:23;;;;;;;9.10;4.57;;;;;;;15.20;100.00;100030.22;5159984;27;20051;-59
2023/09/06 03:04:55;;;;;;;5.47;3.72;;;;;;;15.23;100.00;100032.25;5160032;27;20042;-55
2023/09/06 03:07:21;;;;;;;13.07;4.45;;;;;;;15.29;100.00;100033.47;5159888;27;20055;-57
2023/09/06 03:09:49;;;;;;;14.52;5.85;;;;;;;15.22;100.00;100041.69;5159938;27;20061;-58
2023/09/06 03:12:16;;;;;;;16.88;5.35;;;;;;;15.20;100.00;100030.22;5159771;27;20340;-57
2023/09/06 03:14:44;;;;;;;11.82;4.55;;;;;;;15.17;100.00;100034.53;5159965;27;20396;-58
2023/09/06 03:17:10;;;;;;;6.65;4.20;;;;;;;15.19;100.00;100032.16;5159485;27;20062;-56
2023/09/06 03:19:40;;;;;;;13.90;5.50;;;;;;;15.10;100.00;100025.34;5159972;27;20420;-58
2023/09/06 03:22:09;;;;;;;8.98;4.35;;;;;;;15.10;100.00;100031.69;5159661;27;20051;-57
2023/09/06 03:24:36;;;;;;;6.65;4.30;;;;;;;15.13;100.00;100019.06;5159307;27;20438;-54
2023/09/06 03:27:07;;;;;;;11.20;5.13;;;;;;;15.15;100.00;100025.00;5159793;27;20145;-54
2023/09/06 03:29:33;;;;;;;11.10;5.18;;;;;;;15.14;100.00;100027.00;5159525;27;20047;-55
2023/09/06 03:32:00;;;;;;;14.10;4.22;;;;;;;14.91;100.00;100013.25;5159625;27;20106;-57
2023/09/06 03:34:25;;;;;;;5.93;4.43;;;;;;;15.13;100.00;100008.84;5159399;27;20046;-52
2023/09/06 03:36:55;;;;;;;16.25;5.00;;;;;;;15.18;100.00;100018.75;5159449;27;20482;-54
2023/09/06 03:39:21;;;;;;;14.68;5.38;;;;;;;15.19;100.00;100031.38;5159452;27;20050;-53
2023/09/06 03:41:48;;;;;;;5.75;4.28;;;;;;;15.12;100.00;100026.56;5159548;27;20084;-57
2023/09/06 03:44:16;;;;;;;10.60;5.18;;;;;;;15.22;100.00;100028.66;5159028;27;20082;-56
2023/09/06 03:46:41;;;;;;;8.50;4.68;;;;;;;15.19;100.00;100020.31;5159465;27;20083;-58
2023/09/06 03:49:08;;;;;;;8.55;4.40;;;;;;;15.26;100.00;100021.22;5159110;27;20047;-58
2023/09/06 03:51:36;;;;;;;8.40;4.50;;;;;;;15.27;100.00;100030.31;5159220;27;20137;-54
2023/09/06 03:54:05;;;;;;;18.15;5.28;;;;;;;15.29;100.00;100031.53;5159236;27;20167;-54
2023/09/06 03:56:31;;;;;;;10.00;5.07;;;;;;;15.28;100.00;100024.41;5159003;27;20054;-54
2023/09/06 03:59:00;;;;;;;12.88;4.35;;;;;;;15.27;100.00;100033.88;5159012;27;20135;-56
2023/09/06 04:01:26;;;;;;;9.30;4.22;;;;;;;15.41;100.00;100033.25;5158984;27;20050;-52
2023/09/06 04:03:53;;;;;;;11.40;4.65;;;;;;;15.44;100.00;100038.00;5159124;27;20047;-57
2023/09/06 04:06:19;;;;;;;11.35;4.25;;;;;;;15.65;100.00;100039.44;5158818;27;20051;-54
2023/09/06 04:08:45;;;;;;;17.38;4.10;;;;;;;16.17;100.00;100057.78;5157770;27;20046;-52
2023/09/06 04:11:12;;;;;;;6.95;4.20;;;;;;;16.80;100.00;100069.00;5158708;27;20050;-56
2023/09/06 04:13:39;;;;;;;18.70;7.10;;;;;;;17.40;100.00;99996.50;5159119;27;20107;-53
2023/09/06 04:16:07;;;;;;;8.65;3.88;;;;;;;17.77;100.00;99812.41;5158458;27;20082;-57
2023/09/06 04:18:34;;;;;;;9.15;3.33;;;;;;;18.27;100.00;99577.19;5158785;27;20047;-55
2023/09/06 04:21:00;;;;;;;4.45;3.03;;;;;;;18.64;100.00;99281.38;5158672;27;20051;-55
2023/09/06 04:23:26;;;;;;;9.80;3.47;;;;;;;19.07;100.00;99069.66;5158416;27;20137;-57
2023/09/06 04:25:52;;;;;;;9.07;2.83;;;;;;;19.24;100.00;98873.22;5158433;27;20047;-56
2023/09/06 04:28:20;;;;;;;12.10;3.33;;;;;;;19.64;100.00;98795.28;5158523;27;20081;-56
2023/09/06 04:30:46;;;;;;;4.25;3.28;;;;;;;19.73;100.00;98692.56;5158669;27;20133;-56
2023/09/06 04:33:14;;;;;;;7.28;3.53;;;;;;;20.28;100.00;98670.38;5158308;27;20331;-53
2023/09/06 04:35:42;;;;;;;8.38;3.50;;;;;;;20.51;100.00;98641.47;5158485;27;20046;-52
2023/09/06 04:38:09;;;;;;;6.60;3.67;;;;;;;20.96;100.00;98654.38;5158419;27;20058;-53
2023/09/06 04:40:35;;;;;;;6.13;3.15;;;;;;;21.15;100.00;98672.84;5158895;27;20046;-57
2023/09/06 04:43:01;;;;;;;16.63;4.00;;;;;;;21.41;100.00;98684.00;5157961;27;20058;-57
2023/09/06 04:45:27;;;;;;;10.23;4.88;;;;;;;21.67;100.00;98718.94;5158243;27;20097;-58
2023/09/06 04:47:53;;;;;;;7.72;4.30;;;;;;;21.82;100.00;98739.53;5158135;27;20057;-56
2023/09/06 04:50:19;;;;;;;13.68;5.13;;;;;;;22.02;100.00;98781.09;5158054;27;20424;-52
2023/09/06 04:52:46;;;;;;;17.40;4.65;;;;;;;22.33;100.00;98808.38;5158283;27;20096;-55
2023/09/06 04:55:13;;;;;;;8.95;4.75;;;;;;;22.51;100.00;98844.06;5157842;27;20047;-58
2023/09/06 04:57:39;;;;;;;14.35;6.10;;;;;;;22.70;100.00;98851.34;5158071;27;20043;-56
2023/09/06 05:00:15;;;;;;;9.40;3.90;;;;;;;22.85;100.00;98890.72;5157561;27;20487;-55
2023/09/06 05:02:42;;;;;;;10.45;4.50;;;;;;;23.09;100.00;98902.25;5158175;27;20046;-59
2023/09/06 05:05:08;;;;;;;6.70;4.20;;;;;;;23.27;100.00;98953.94;5157765;27;20055;-56
2023/09/06 05:07:36;;;;;;;11.93;4.40;;;;;;;23.59;100.00;98984.28;5158103;27;20149;-55
2023/09/06 05:10:03;;;;;;;6.30;3.63;;;;;;;23.71;100.00;98991.06;5157495;27;20058;-55
2023/09/06 05:12:29;;;;;;;9.80;4.93;;;;;;;24.01;100.00;99036.31;5157864;27;20043;-51
2023/09/06 05:14:55;;;;;;;8.63;4.60;;;;;;;24.27;100.00;99054.47;5157904;27;20423;-52
2023/09/06 05:17:21;;;;;;;9.25;3.33;;;;;;;24.14;100.00;99067.78;5157450;27;20058;-55
2023/09/06 05:19:51;;;;;;;10.70;4.28;;;;;;;24.47;100.00;99090.53;5159275;27;20043;-56
2023/09/06 05:22:18;;;;;;;11.70;4.03;;;;;;;24.57;100.00;99116.56;5161141;27;20065;-54
2023/09/06 05:24:45;;;;;;;6.15;3.88;;;;;;;24.72;100.00;99128.75;5161556;27;20058;-56
2023/09/06 05:27:11;;;;;;;9.35;3.25;;;;;;;25.14;100.00;99158.34;5161665;27;20066;-57
2023/09/06 05:29:37;;;;;;;8.88;5.30;;;;;;;25.26;100.00;99168.66;5161612;27;20107;-52
2023/09/06 05:32:03;;;;;;;9.07;5.70;;;;;;;25.53;100.00;99191.13;5161038;27;20323;-52
2023/09/06 05:34:29;;;;;;;5.93;5.00;;;;;;;25.94;100.00;99207.88;5161355;27;20050;-57
2023/09/06 05:36:55;;;;;;;10.93;5.05;;;;;;;25.96;100.00;99217.38;5161170;27;20175;-55
2023/09/06 05:39:21;;;;;;;6.88;4.40;;;;;;;26.08;100.00;99240.94;5161382;27;20134;-53
2023/09/06 05:41:50;;;;;;;12.00;4.28;;;;;;;26.30;100.00;99243.56;5161074;27;20054;-53
2023/09/06 05:44:15;;;;;;;6.32;4.05;;;;;;;26.52;100.00;99260.25;5160999;27;20297;-55
2023/09/06 05:46:43;;;;;;;6.63;4.05;;;;;;;26.71;100.00;99284.28;5160916;27;20146;-57
2023/09/06 05:49:09;;;;;;;5.63;3.65;;;;;;;26.73;100.00;99283.81;5160839;27;20126;-53
2023/09/06 05:51:35;;;;;;;8.25;4.22;;;;;;;26.93;100.00;99294.53;5161077;27;20181;-51
2023/09/06 05:54:01;;;;;;;7.60;3.80;;;;;;;27.06;100.00;99295.13;5160930;27;20046;-55
2023/09/06 05:56:27;;;;;;;6.75;3.80;;;;;;;27.30;100.00;99319.75;5160909;27;20404;-58
2023/09/06 05:58:53;;;;;;;8.98;4.18;;;;;;;27.39;100.00;99325.31;5160144;27;20137;-58
2023/09/06 06:01:19;;;;;;;7.75;4.25;;;;;;;27.51;100.00;99324.31;5160332;27;20137;-58
2023/09/06 06:03:45;;;;;;;9.07;3.90;;;;;;;27.61;100.00;99350.41;5160930;27;20047;-58
2023/09/06 06:06:14;;;;;;;4.40;3.45;;;;;;;26.78;100.00;99318.94;5160367;27;20051;-55
2023/09/06 06:08:41;;;;;;;7.80;3.85;;;;;;;26.43;100.00;99316.47;5159895;27;20050;-56
2023/09/06 06:11:08;;;;;;;4.80;4.10;;;;;;;25.78;100.00;99281.94;5160648;27;20057;-59
2023/09/06 06:13:34;;;;;;;9.25;4.07;;;;;;;25.98;100.00;99284.31;5160510;27;20062;-57
2023/09/06 06:16:01;;;;;;;8.50;3.65;;;;;;;25.42;100.00;99254.56;5160259;27;20054;-58
2023/09/06 06:18:27;;;;;;;6.05;3.80;;;;;;;25.26;100.00;99233.97;5160279;27;20129;-58
2023/09/06 06:20:54;;;;;;;7.72;3.80;;;;;;;25.24;100.00;99207.63;5160168;27;20150;-60
2023/09/06 06:23:20;;;;;;;7.22;4.88;;;;;;;25.95;100.00;99238.28;5159775;27;20042;-54
2023/09/06 06:25:46;;;;;;;5.32;3.75;;;;;;;26.51;100.00;99289.63;5159990;27;20051;-58
2023/09/06 06:28:13;;;;;;;7.60;3.65;;;;;;;27.17;100.00;99312.28;5160238;27;20152;-59
2023/09/06 06:30:38;;;;;;;9.93;4.53;;;;;;;27.50;100.00;99333.25;5159582;27;20043;-59
2023/09/06 06:33:06;;;;;;;7.82;4.03;;;;;;;27.79;100.00;99350.34;5159895;27;20093;-55
2023/09/06 06:35:32;;;;;;;4.65;3.40;;;;;;;28.42;100.00;99372.16;5160376;27;20050;-56
2023/09/06 06:37:58;;;;;;;6.57;3.50;;;;;;;28.55;100.00;99379.06;5160222;27;20378;-60
2023/09/06 06:40:26;;;;;;;4.80;3.47;;;;;;;28.73;100.00;99378.16;5160196;27;20058;-61
2023/09/06 06:42:52;;;;;;;4.15;3.00;;;;;;;29.11;100.00;99395.53;5159844;27;20043;-57
2023/09/06 06:45:17;;;;;;;9.43;3.10;;;;;;;29.23;100.00;99386.75;5159783;27;20054;-56
2023/09/06 06:47:43;;;;;;;6.72;3.10;;;;;;;29.51;100.00;99394.91;5160193;27;20081;-60
2023/09/06 06:50:10;;;;;;;9.48;4.15;;;;;;;28.68;100.00;99395.75;5159952;27;20046;-59
2023/09/06 06:52:36;;;;;;;4.63;2.70;;;;;;;28.87;100.00;99396.34;5159894;27;20047;-61
2023/09/06 06:55:03;;;;;;;5.53;2.90;;;;;;;29.32;100.00;99411.25;5159630;27;20174;-60
2023/09/06 06:57:29;;;;;;;4.90;2.45;;;;;;;29.26;100.00;99404.78;5159981;27;20050;-60
2023/09/06 06:59:55;;;;;;;5.72;3.33;;;;;;;29.51;100.00;99414.66;5159556;27;20111;-60
2023/09/06 07:02:22;;;;;;;9.38;2.80;;;;;;;29.67;100.00;99408.53;5159974;27;20047;-60
2023/09/06 07:04:48;;;;;;;3.60;2.42;;;;;;;29.81;100.00;99398.47;5159389;27;20412;-57
2023/09/06 07:07:14;;;;;;;4.43;2.70;;;;;;;29.87;100.00;99413.44;5159746;27;20145;-57
2023/09/06 07:09:41;;;;;;;4.38;2.50;;;;;;;29.80;100.00;99419.50;5159584;27;20050;-60
2023/09/06 07:12:07;;;;;;;3.67;3.00;;;;;;;29.80;100.00;99419.50;5159309;27;20047;-59
2023/09/06 07:14:33;;;;;;;4.93;3.15;;;;;;;30.23;100.00;99414.22;5159413;27;20060;-60
2023/09/06 07:16:59;;;;;;;6.82;2.55;;;;;;;30.45;96.36;99410.88;5159378;27;20086;-58
2023/09/06 07:19:25;;;;;;;5.75;2.88;;;;;;;30.44;98.92;99409.34;5159503;27;20117;-55
2023/09/06 07:21:50;;;;;;;7.65;3.03;;;;;;;30.57;92.13;99417.47;5159259;27;20055;-55
2023/09/06 07:24:17;;;;;;;6.40;3.00;;;;;;;30.04;96.81;99413.69;5159566;27;20300;-54
2023/09/06 07:26:43;;;;;;;9.35;3.60;;;;;;;30.47;97.39;99414.78;5158957;27;20343;-52
2023/09/06 07:29:10;;;;;;;4.05;3.20;;;;;;;30.85;91.41;99409.31;5159586;27;20078;-54
2023/09/06 07:31:36;;;;;;;4.20;2.70;;;;;;;31.03;92.10;99417.47;5159019;27;20085;-60
2023/09/06 07:34:03;;;;;;;7.28;3.72;;;;;;;31.44;86.58;99425.06;5159430;27;20042;-59
2023/09/06 07:36:29;;;;;;;7.72;3.50;;;;;;;31.10;89.97;99430.41;5159185;27;20046;-57
2023/09/06 07:38:57;;;;;;;6.57;3.67;;;;;;;31.21;89.68;99424.06;5158766;27;20058;-59
2023/09/06 07:41:25;;;;;;;8.73;2.63;;;;;;;31.30;87.72;99419.00;5159221;27;20403;-57
2023/09/06 07:43:51;;;;;;;5.25;2.92;;;;;;;31.01;89.74;99416.41;5158826;27;20061;-57
2023/09/06 07:46:17;;;;;;;7.72;3.13;;;;;;;31.19;89.98;99410.44;5159128;27;20050;-63
2023/09/06 07:48:44;;;;;;;7.68;3.30;;;;;;;30.88;83.16;99417.56;5158962;27;20066;-59
2023/09/06 07:51:12;;;;;;;7.65;2.85;;;;;;;31.10;89.93;99413.44;5159025;27;20130;-63
2023/09/06 07:53:38;;;;;;;6.63;2.40;;;;;;;31.35;80.06;99431.69;5158695;27;20141;-63
2023/09/06 07:56:05;;;;;;;3.47;2.53;;;;;;;30.68;76.53;99441.00;5159124;27;20061;-56
2023/09/06 07:58:32;;;;;;;5.95;2.40;;;;;;;30.75;79.00;99439.78;5158506;27;20388;-64
2023/09/06 08:00:58;;;;;;;6.57;2.45;;;;;;;30.71;80.14;99431.50;5159043;27;20060;-61
2023/09/06 08:03:26;;;;;;;3.67;2.58;;;;;;;29.99;79.80;99429.31;5158685;27;20047;-58
2023/09/06 08:05:52;;;;;;;5.00;2.42;;;;;;;30.37;78.99;99438.84;5158372;27;20427;-57
2023/09/06 08:08:18;;;;;;;5.00;2.95;;;;;;;30.34;78.58;99441.88;5158691;27;20050;-60
2023/09/06 08:10:44;;;;;;;5.63;2.30;;;;;;;30.14;80.77;99437.72;5158343;27;20078;-61
2023/09/06 08:13:10;;;;;;;3.95;2.40;;;;;;;30.89;79.76;99441.78;5158590;27;20054;-62
2023/09/06 08:15:37;;;;;;;5.45;2.50;;;;;;;30.57;80.73;99437.28;5158556;27;20142;-60
2023/09/06 08:18:04;;;;;;;5.60;2.35;;;;;;;30.15;80.65;99436.44;5158748;27;20111;-57
2023/09/06 08:20:30;;;;;;;5.60;2.40;;;;;;;30.38;80.33;99440.38;5158241;27;20089;-55
2023/09/06 08:22:56;;;;;;;4.22;2.10;;;;;;;29.25;81.37;99440.66;5158443;27;20352;-62
2023/09/06 08:25:22;;;;;;;4.07;2.20;;;;;;;29.41;80.06;99453.53;5157729;27;20130;-60
2023/09/06 08:27:50;;;;;;;2.42;1.80;;;;;;;29.14;83.51;99445.34;5158391;27;20194;-57
2023/09/06 08:30:18;;;;;;;6.75;2.08;;;;;;;29.61;78.85;99446.44;5157843;27;20129;-55
2023/09/06 08:32:48;;;;;;;5.13;2.20;;;;;;;29.99;80.14;99453.94;5157759;27;20384;-60
2023/09/06 08:35:14;;;;;;;2.30;2.08;;;;;;;29.97;78.81;99448.78;5157639;27;20055;-55
2023/09/06 08:37:40;;;;;;;12.65;2.70;;;;;;;29.82;79.81;99444.44;5158052;27;20050;-57
2023/09/06 08:40:07;;;;;;;5.25;2.50;;;;;;;28.67;88.88;99432.91;5158044;27;20063;-53
2023/09/06 08:42:35;;;;;;;5.13;2.03;;;;;;;28.81;91.95;99429.31;5157897;27;20507;-57
2023/09/06 08:45:03;;;;;;;6.10;2.20;;;;;;;29.27;87.07;99434.56;5157993;27;20464;-56
2023/09/06 08:47:30;;;;;;;5.63;2.38;;;;;;;29.58;82.02;99444.56;5157763;27;20055;-52
2023/09/06 08:49:57;;;;;;;5.90;2.33;;;;;;;29.98;81.68;99446.75;5158125;27;20043;-58
2023/09/06 08:52:23;;;;;;;9.07;2.83;;;;;;;29.90;82.13;99448.44;5157790;27;20129;-58
2023/09/06 08:54:50;;;;;;;4.47;2.30;;;;;;;29.71;83.20;99445.81;5156860;27;20335;-60
2023/09/06 08:57:17;;;;;;;5.22;2.70;;;;;;;30.19;83.08;99450.41;5157440;27;20137;-56
2023/09/06 08:59:43;;;;;;;5.32;2.75;;;;;;;30.25;83.87;99448.44;5157825;27;20133;-60
2023/09/06 09:02:12;;;;;;;3.00;2.17;;;;;;;30.63;80.03;99455.09;5157393;27;20186;-59
2023/09/06 09:04:41;;;;;;;4.00;2.10;;;;;;;30.58;76.34;99456.56;5157837;27;20339;-59
2023/09/06 09:07:08;;;;;;;3.22;2.40;;;;;;;30.94;70.99;99460.88;5157992;27;20057;-58
2023/09/06 09:09:54;;;;;;;8.15;2.60;;;;;;;30.27;73.19;99460.03;5157601;27;20047;-53
2023/09/06 09:12:23;;;;;;;3.42;1.88;;;;;;;29.92;77.32;99465.66;5157676;27;20364;-59
2023/09/06 09:14:49;;;;;;;7.80;2.38;;;;;;;29.80;77.33;99464.72;5157532;27;20047;-57
2023/09/06 09:17:14;;;;;;;4.93;2.30;;;;;;;29.48;75.91;99472.13;5157797;27;20525;-58
2023/09/06 09:19:40;;;;;;;6.95;2.30;;;;;;;29.46;78.58;99464.16;5157577;27;20427;-59
2023/09/06 09:22:07;;;;;;;9.32;2.22;;;;;;;28.62;83.25;99465.38;5157953;27;20050;-58
2023/09/06 09:24:33;;;;;;;5.05;2.00;;;;;;;28.35;83.86;99455.81;5157465;27;20372;-56
2023/09/06 09:26:59;;;;;;;8.95;2.22;;;;;;;29.19;81.10;99450.31;5157616;27;20046;-57
2023/09/06 09:29:25;;;;;;;11.88;1.98;;;;;;;29.06;81.48;99465.50;5157477;27;20412;-53
2023/09/06 09:31:51;;;;;;;3.35;1.83;;;;;;;29.11;80.26;99461.22;5157283;27;20137;-61
2023/09/06 09:34:17;;;;;;;3.90;2.20;;;;;;;29.19;78.59;99451.13;5157641;27;20053;-57
2023/09/06 09:36:50;;;;;;;8.73;2.10;;;;;;;29.35;78.58;99460.34;5157273;27;20062;-55
2023/09/06 09:39:18;;;;;;;2.97;2.08;;;;;;;29.60;79.18;99459.00;5157370;27;20050;-55
2023/09/06 09:41:44;;;;;;;3.38;2.28;;;;;;;29.91;78.49;99450.75;5157080;27;20145;-59
2023/09/06 09:44:14;;;;;;;4.85;2.00;;;;;;;30.39;76.81;99466.59;5157794;27;20494;-58
2023/09/06 09:46:42;;;;;;;15.93;2.55;;;;;;;29.21;78.40;99447.78;5157226;27;20105;-59
2023/09/06 09:49:10;;;;;;;8.30;2.60;;;;;;;28.71;80.86;99456.06;5157826;27;20054;-58
2023/09/06 09:51:37;;;;;;;2.72;2.00;;;;;;;28.65;84.10;99463.63;5156952;27;20411;-59
2023/09/06 09:54:04;;;;;;;15.52;2.78;;;;;;;27.76;87.59;99455.53;5156902;27;20055;-61
2023/09/06 09:56:32;;;;;;;5.10;2.00;;;;;;;27.44;92.88;99454.19;5156955;27;20134;-58
2023/09/06 09:59:00;;;;;;;3.38;2.10;;;;;;;27.85;90.48;99461.09;5157062;27;20389;-59
2023/09/06 10:01:27;;;;;;;6.30;2.13;;;;;;;28.44;85.78;99465.50;5157020;27;20054;-59
2023/09/06 10:03:55;;;;;;;8.38;2.40;;;;;;;28.05;83.39;99479.47;5156749;27;20480;-59
2023/09/06 10:06:24;;;;;;;2.63;2.05;;;;;;;28.65;79.41;99480.56;5159580;27;20421;-58
2023/09/06 10:08:54;;;;;;;3.42;2.03;;;;;;;28.86;79.21;99482.28;5160585;27;20057;-52
2023/09/06 10:11:21;;;;;;;5.60;2.63;;;;;;;28.96;81.06;99478.13;5160599;27;20107;-57
2023/09/06 10:13:48;;;;;;;3.10;2.08;;;;;;;29.35;76.02;99480.88;5160074;27;20133;-59
2023/09/06 10:16:14;;;;;;;5.75;2.80;;;;;;;29.33;71.15;99483.44;5160423;27;20060;-57
2023/09/06 10:18:40;;;;;;;7.13;1.80;;;;;;;29.43;74.16;99478.47;5160475;27;20153;-57
2023/09/06 10:21:07;;;;;;;3.80;2.10;;;;;;;29.11;72.93;99488.66;5160393;27;20054;-61
2023/09/06 10:23:41;;;;;;;4.28;2.08;;;;;;;28.16;76.01;99485.38;5160667;27;20050;-57
2023/09/06 10:26:07;;;;;;;4.32;2.00;;;;;;;28.07;76.20;99471.34;5160461;27;20203;-58
2023/09/06 10:28:33;;;;;;;4.07;2.00;;;;;;;28.60;74.16;99493.28;5160450;27;20403;-58
2023/09/06 10:31:07;;;;;;;6.43;2.15;;;;;;;29.10;75.61;99492.75;5160011;27;20142;-60
2023/09/06 10:33:56;;;;;;;5.93;2.33;;;;;;;28.47;80.34;99487.13;5160692;27;20084;-59
2023/09/06 10:36:27;;;;;;;11.00;2.65;;;;;;;28.38;82.42;99471.75;5155951;27;20301;-59
2023/09/06 10:39:16;;;;;;;6.03;2.00;;;;;;;28.49;81.46;99476.09;5160395;27;20063;-60
2023/09/06 10:42:18;;;;;;;3.70;1.67;;;;;;;28.81;77.25;99489.34;5160249;27;20054;-59
2023/09/06 10:45:13;;;;;;;5.47;2.20;;;;;;;29.21;73.58;99490.13;5159862;27;20349;-59
2023/09/06 10:47:40;;;;;;;5.18;1.98;;;;;;;28.61;76.07;99492.03;5160299;27;20137;-60
2023/09/06 10:50:08;;;;;;;4.63;2.15;;;;;;;28.55;75.74;99482.66;5160179;27;20062;-60
2023/09/06 10:52:42;;;;;;;3.20;1.85;;;;;;;28.86;76.43;99487.91;5160031;27;20056;-61
2023/09/06 10:55:13;;;;;;;9.05;2.20;;;;;;;28.40;77.74;99490.28;5159928;27;20133;-60
2023/09/06 10:57:51;;;;;;;5.20;2.10;;;;;;;27.95;82.58;99494.88;5159674;27;20046;-57
2023/09/06 11:00:19;;;;;;;5.32;2.45;;;;;;;27.67;86.38;99492.91;5159961;27;20443;-59
2023/09/06 11:03:17;;;;;;;3.97;2.13;;;;;;;27.57;86.96;99482.94;5159651;27;20058;-59
2023/09/06 11:05:50;;;;;;;4.07;1.90;;;;;;;27.16;86.92;99490.84;5159438;27;20055;-59
2023/09/06 11:08:30;;;;;;;3.00;2.17;;;;;;;26.82;87.17;99489.09;5159729;27;20215;-57
2023/09/06 11:11:04;;;;;;;6.28;2.13;;;;;;;26.46;89.90;99493.41;5159529;27;20146;-59
2023/09/06 11:13:32;;;;;;;3.25;2.05;;;;;;;26.50;95.98;99485.63;5159716;27;20046;-59
2023/09/06 11:15:59;;;;;;;6.38;2.78;;;;;;;26.63;99.84;99477.06;5159360;27;20093;-57
2023/09/06 11:18:27;;;;;;;3.42;2.22;;;;;;;26.79;98.49;99480.81;5159137;27;20115;-58
2023/09/06 11:20:53;;;;;;;8.20;2.40;;;;;;;26.46;100.00;99478.59;5159597;27;20110;-59
2023/09/06 11:23:19;;;;;;;6.57;2.45;;;;;;;26.15;100.00;99478.66;5159651;27;20043;-60
2023/09/06 11:25:45;;;;;;;11.00;2.75;;;;;;;25.45;100.00;99467.72;5159167;27;20090;-59